sensor_id;sensor_type;location;lat;lon;timestamp;P1;durP1;ratioP1;P2;durP2;ratioP2
16385;SDS011;8302;51.154;4.456;2024-03-08T00:01:24;9.35;;;4.47;;
16385;SDS011;8302;51.154;4.456;2024-03-08T00:03:53;8.25;;;4.47;;
16385;SDS011;8302;51.154;4.456;2024-03-08T00:06:21;10.52;;;4.90;;
16385;SDS011;8302;51.154;4.456;2024-03-08T00:08:48;8.85;;;4.88;;
16385;SDS011;8302;51.154;4.456;2024-03-08T00:11:17;11.07;;;4.43;;
16385;SDS011;8302;51.154;4.456;2024-03-08T00:13:45;8.95;;;4.30;;
16385;SDS011;8302;51.154;4.456;2024-03-08T00:16:13;7.43;;;4.18;;
16385;SDS011;8302;51.154;4.456;2024-03-08T00:18:41;7.97;;;4.13;;
16385;SDS011;8302;51.154;4.456;2024-03-08T00:21:10;13.35;;;5.25;;
16385;SDS011;8302;51.154;4.456;2024-03-08T00:23:38;10.40;;;5.55;;
16385;SDS011;8302;51.154;4.456;2024-03-08T00:26:06;8.88;;;4.72;;
16385;SDS011;8302;51.154;4.456;2024-03-08T00:28:34;9.25;;;5.22;;
16385;SDS011;8302;51.154;4.456;2024-03-08T00:31:01;10.10;;;5.05;;
16385;SDS011;8302;51.154;4.456;2024-03-08T00:33:29;9.40;;;4.75;;
16385;SDS011;8302;51.154;4.456;2024-03-08T00:35:57;10.48;;;4.85;;
16385;SDS011;8302;51.154;4.456;2024-03-08T00:38:26;11.30;;;5.78;;
16385;SDS011;8302;51.154;4.456;2024-03-08T00:40:54;10.80;;;5.10;;
16385;SDS011;8302;51.154;4.456;2024-03-08T00:43:23;7.10;;;4.72;;
16385;SDS011;8302;51.154;4.456;2024-03-08T00:45:50;9.65;;;5.60;;
16385;SDS011;8302;51.154;4.456;2024-03-08T00:48:18;11.18;;;4.45;;
16385;SDS011;8302;51.154;4.456;2024-03-08T00:50:47;9.13;;;5.40;;
16385;SDS011;8302;51.154;4.456;2024-03-08T00:53:14;8.13;;;4.30;;
16385;SDS011;8302;51.154;4.456;2024-03-08T00:55:44;8.20;;;4.65;;
16385;SDS011;8302;51.154;4.456;2024-03-08T00:58:12;8.60;;;4.05;;
16385;SDS011;8302;51.154;4.456;2024-03-08T01:00:40;8.55;;;4.50;;
16385;SDS011;8302;51.154;4.456;2024-03-08T01:03:08;7.93;;;3.88;;
16385;SDS011;8302;51.154;4.456;2024-03-08T01:05:37;10.32;;;4.95;;
16385;SDS011;8302;51.154;4.456;2024-03-08T01:08:05;8.27;;;4.63;;
16385;SDS011;8302;51.154;4.456;2024-03-08T01:10:34;8.88;;;4.38;;
16385;SDS011;8302;51.154;4.456;2024-03-08T01:13:03;8.48;;;4.85;;
16385;SDS011;8302;51.154;4.456;2024-03-08T01:15:31;9.05;;;4.50;;
16385;SDS011;8302;51.154;4.456;2024-03-08T01:17:59;11.90;;;5.63;;
16385;SDS011;8302;51.154;4.456;2024-03-08T01:20:27;7.63;;;4.43;;
16385;SDS011;8302;51.154;4.456;2024-03-08T01:22:55;10.82;;;4.97;;
16385;SDS011;8302;51.154;4.456;2024-03-08T01:25:22;9.30;;;4.57;;
16385;SDS011;8302;51.154;4.456;2024-03-08T01:27:50;8.68;;;5.10;;
16385;SDS011;8302;51.154;4.456;2024-03-08T01:30:21;10.10;;;5.20;;
16385;SDS011;8302;51.154;4.456;2024-03-08T01:32:49;7.32;;;4.25;;
16385;SDS011;8302;51.154;4.456;2024-03-08T01:35:17;6.93;;;4.10;;
16385;SDS011;8302;51.154;4.456;2024-03-08T01:37:45;9.18;;;6.18;;
16385;SDS011;8302;51.154;4.456;2024-03-08T01:40:13;9.23;;;4.40;;
16385;SDS011;8302;51.154;4.456;2024-03-08T01:42:40;13.10;;;5.68;;
16385;SDS011;8302;51.154;4.456;2024-03-08T01:45:08;10.55;;;5.40;;
16385;SDS011;8302;51.154;4.456;2024-03-08T01:47:38;6.47;;;3.47;;
16385;SDS011;8302;51.154;4.456;2024-03-08T01:50:06;9.90;;;4.38;;
16385;SDS011;8302;51.154;4.456;2024-03-08T01:52:34;11.68;;;5.53;;
16385;SDS011;8302;51.154;4.456;2024-03-08T01:55:03;8.63;;;4.53;;
16385;SDS011;8302;51.154;4.456;2024-03-08T01:57:33;16.73;;;6.75;;
16385;SDS011;8302;51.154;4.456;2024-03-08T02:00:01;10.52;;;5.15;;
16385;SDS011;8302;51.154;4.456;2024-03-08T02:02:31;8.05;;;4.20;;
16385;SDS011;8302;51.154;4.456;2024-03-08T02:05:01;6.28;;;4.35;;
16385;SDS011;8302;51.154;4.456;2024-03-08T02:07:29;11.13;;;5.20;;
16385;SDS011;8302;51.154;4.456;2024-03-08T02:09:58;9.52;;;5.10;;
16385;SDS011;8302;51.154;4.456;2024-03-08T02:12:25;7.75;;;4.82;;
16385;SDS011;8302;51.154;4.456;2024-03-08T02:14:53;7.30;;;4.43;;
16385;SDS011;8302;51.154;4.456;2024-03-08T02:17:22;8.02;;;4.85;;
16385;SDS011;8302;51.154;4.456;2024-03-08T02:19:50;10.13;;;4.55;;
16385;SDS011;8302;51.154;4.456;2024-03-08T02:22:19;9.13;;;5.13;;
16385;SDS011;8302;51.154;4.456;2024-03-08T02:24:46;10.18;;;4.85;;
16385;SDS011;8302;51.154;4.456;2024-03-08T02:27:15;7.32;;;4.13;;
16385;SDS011;8302;51.154;4.456;2024-03-08T02:29:43;10.02;;;5.35;;
16385;SDS011;8302;51.154;4.456;2024-03-08T02:32:11;9.50;;;4.15;;
16385;SDS011;8302;51.154;4.456;2024-03-08T02:34:39;9.35;;;4.60;;
16385;SDS011;8302;51.154;4.456;2024-03-08T02:37:07;5.93;;;3.38;;
16385;SDS011;8302;51.154;4.456;2024-03-08T02:39:36;6.65;;;4.43;;
16385;SDS011;8302;51.154;4.456;2024-03-08T02:42:04;7.80;;;4.20;;
16385;SDS011;8302;51.154;4.456;2024-03-08T02:44:32;8.52;;;4.32;;
16385;SDS011;8302;51.154;4.456;2024-03-08T02:47:00;9.10;;;5.15;;
16385;SDS011;8302;51.154;4.456;2024-03-08T02:49:27;9.10;;;4.68;;
16385;SDS011;8302;51.154;4.456;2024-03-08T02:51:55;8.55;;;4.47;;
16385;SDS011;8302;51.154;4.456;2024-03-08T02:54:23;8.45;;;4.43;;
16385;SDS011;8302;51.154;4.456;2024-03-08T02:56:52;7.45;;;4.55;;
16385;SDS011;8302;51.154;4.456;2024-03-08T02:59:20;8.45;;;4.47;;
16385;SDS011;8302;51.154;4.456;2024-03-08T03:01:48;5.50;;;3.63;;
16385;SDS011;8302;51.154;4.456;2024-03-08T03:04:17;8.43;;;4.70;;
16385;SDS011;8302;51.154;4.456;2024-03-08T03:06:44;8.10;;;4.30;;
16385;SDS011;8302;51.154;4.456;2024-03-08T03:09:12;7.68;;;4.38;;
16385;SDS011;8302;51.154;4.456;2024-03-08T03:11:43;8.90;;;4.38;;
16385;SDS011;8302;51.154;4.456;2024-03-08T03:14:13;7.40;;;4.63;;
16385;SDS011;8302;51.154;4.456;2024-03-08T03:16:42;8.52;;;4.40;;
16385;SDS011;8302;51.154;4.456;2024-03-08T03:19:10;5.70;;;3.60;;
16385;SDS011;8302;51.154;4.456;2024-03-08T03:21:38;10.60;;;4.78;;
16385;SDS011;8302;51.154;4.456;2024-03-08T03:24:06;6.68;;;4.28;;
16385;SDS011;8302;51.154;4.456;2024-03-08T03:26:36;8.73;;;5.00;;
16385;SDS011;8302;51.154;4.456;2024-03-08T03:29:05;5.95;;;4.40;;
16385;SDS011;8302;51.154;4.456;2024-03-08T03:31:36;9.60;;;5.07;;
16385;SDS011;8302;51.154;4.456;2024-03-08T03:34:04;7.90;;;4.43;;
16385;SDS011;8302;51.154;4.456;2024-03-08T03:36:35;6.45;;;4.00;;
16385;SDS011;8302;51.154;4.456;2024-03-08T03:39:04;5.90;;;3.80;;
16385;SDS011;8302;51.154;4.456;2024-03-08T03:41:36;10.65;;;5.00;;
16385;SDS011;8302;51.154;4.456;2024-03-08T03:44:05;7.45;;;4.63;;
16385;SDS011;8302;51.154;4.456;2024-03-08T03:46:33;10.07;;;5.50;;
16385;SDS011;8302;51.154;4.456;2024-03-08T03:49:02;7.07;;;3.42;;
16385;SDS011;8302;51.154;4.456;2024-03-08T03:51:30;8.15;;;3.50;;
16385;SDS011;8302;51.154;4.456;2024-03-08T03:53:57;7.93;;;4.57;;
16385;SDS011;8302;51.154;4.456;2024-03-08T03:56:25;6.15;;;3.97;;
16385;SDS011;8302;51.154;4.456;2024-03-08T03:58:54;8.32;;;5.10;;
16385;SDS011;8302;51.154;4.456;2024-03-08T04:01:21;9.00;;;3.80;;
16385;SDS011;8302;51.154;4.456;2024-03-08T04:03:50;8.68;;;4.15;;
16385;SDS011;8302;51.154;4.456;2024-03-08T04:06:19;9.35;;;4.93;;
16385;SDS011;8302;51.154;4.456;2024-03-08T04:08:47;8.13;;;3.67;;
16385;SDS011;8302;51.154;4.456;2024-03-08T04:11:15;7.38;;;4.75;;
16385;SDS011;8302;51.154;4.456;2024-03-08T04:13:43;5.53;;;4.00;;
16385;SDS011;8302;51.154;4.456;2024-03-08T04:16:11;7.82;;;4.93;;
16385;SDS011;8302;51.154;4.456;2024-03-08T04:18:39;7.90;;;4.70;;
16385;SDS011;8302;51.154;4.456;2024-03-08T04:21:07;7.43;;;4.10;;
16385;SDS011;8302;51.154;4.456;2024-03-08T04:23:36;8.13;;;4.57;;
16385;SDS011;8302;51.154;4.456;2024-03-08T04:26:04;8.48;;;4.53;;
16385;SDS011;8302;51.154;4.456;2024-03-08T04:28:32;4.93;;;3.95;;
16385;SDS011;8302;51.154;4.456;2024-03-08T04:31:00;8.57;;;4.63;;
16385;SDS011;8302;51.154;4.456;2024-03-08T04:33:28;6.90;;;4.32;;
16385;SDS011;8302;51.154;4.456;2024-03-08T04:35:56;6.88;;;4.40;;
16385;SDS011;8302;51.154;4.456;2024-03-08T04:38:24;7.65;;;5.35;;
16385;SDS011;8302;51.154;4.456;2024-03-08T04:40:53;8.57;;;4.80;;
16385;SDS011;8302;51.154;4.456;2024-03-08T04:43:21;7.25;;;3.67;;
16385;SDS011;8302;51.154;4.456;2024-03-08T04:45:52;8.85;;;4.57;;
16385;SDS011;8302;51.154;4.456;2024-03-08T04:48:19;9.07;;;4.32;;
16385;SDS011;8302;51.154;4.456;2024-03-08T04:50:48;9.02;;;5.35;;
16385;SDS011;8302;51.154;4.456;2024-03-08T04:53:15;7.20;;;4.80;;
16385;SDS011;8302;51.154;4.456;2024-03-08T04:55:44;7.82;;;4.68;;
16385;SDS011;8302;51.154;4.456;2024-03-08T04:58:13;6.28;;;3.92;;
16385;SDS011;8302;51.154;4.456;2024-03-08T05:00:41;6.30;;;4.10;;
16385;SDS011;8302;51.154;4.456;2024-03-08T05:03:09;6.50;;;4.63;;
16385;SDS011;8302;51.154;4.456;2024-03-08T05:05:37;10.27;;;3.70;;
16385;SDS011;8302;51.154;4.456;2024-03-08T05:08:05;6.70;;;4.43;;
16385;SDS011;8302;51.154;4.456;2024-03-08T05:10:33;9.32;;;4.40;;
16385;SDS011;8302;51.154;4.456;2024-03-08T05:13:01;5.97;;;4.57;;
16385;SDS011;8302;51.154;4.456;2024-03-08T05:15:30;8.27;;;4.90;;
16385;SDS011;8302;51.154;4.456;2024-03-08T05:18:01;7.18;;;4.35;;
16385;SDS011;8302;51.154;4.456;2024-03-08T05:20:29;10.45;;;4.90;;
16385;SDS011;8302;51.154;4.456;2024-03-08T05:22:57;7.28;;;5.28;;
16385;SDS011;8302;51.154;4.456;2024-03-08T05:25:27;7.85;;;5.05;;
16385;SDS011;8302;51.154;4.456;2024-03-08T05:27:54;7.30;;;5.13;;
16385;SDS011;8302;51.154;4.456;2024-03-08T05:30:22;7.68;;;4.85;;
16385;SDS011;8302;51.154;4.456;2024-03-08T05:32:51;7.35;;;4.15;;
16385;SDS011;8302;51.154;4.456;2024-03-08T05:35:19;8.27;;;4.60;;
16385;SDS011;8302;51.154;4.456;2024-03-08T05:37:47;9.18;;;4.45;;
16385;SDS011;8302;51.154;4.456;2024-03-08T05:40:15;6.68;;;4.25;;
16385;SDS011;8302;51.154;4.456;2024-03-08T05:42:46;6.60;;;4.20;;
16385;SDS011;8302;51.154;4.456;2024-03-08T05:45:13;5.53;;;3.75;;
16385;SDS011;8302;51.154;4.456;2024-03-08T05:47:42;7.53;;;3.55;;
16385;SDS011;8302;51.154;4.456;2024-03-08T05:50:11;7.65;;;4.47;;
16385;SDS011;8302;51.154;4.456;2024-03-08T05:52:39;7.55;;;4.30;;
16385;SDS011;8302;51.154;4.456;2024-03-08T05:55:07;7.57;;;4.20;;
16385;SDS011;8302;51.154;4.456;2024-03-08T05:57:36;6.45;;;4.20;;
16385;SDS011;8302;51.154;4.456;2024-03-08T06:00:06;6.40;;;4.47;;
16385;SDS011;8302;51.154;4.456;2024-03-08T06:02:37;6.32;;;3.83;;
16385;SDS011;8302;51.154;4.456;2024-03-08T06:05:08;5.90;;;4.28;;
16385;SDS011;8302;51.154;4.456;2024-03-08T06:07:38;5.35;;;3.60;;
16385;SDS011;8302;51.154;4.456;2024-03-08T06:10:07;6.90;;;4.45;;
16385;SDS011;8302;51.154;4.456;2024-03-08T06:12:36;7.85;;;4.15;;
16385;SDS011;8302;51.154;4.456;2024-03-08T06:15:06;9.00;;;4.95;;
16385;SDS011;8302;51.154;4.456;2024-03-08T06:17:35;6.65;;;4.03;;
16385;SDS011;8302;51.154;4.456;2024-03-08T06:20:03;6.85;;;4.07;;
16385;SDS011;8302;51.154;4.456;2024-03-08T06:22:38;9.15;;;5.22;;
16385;SDS011;8302;51.154;4.456;2024-03-08T06:25:07;7.10;;;3.90;;
16385;SDS011;8302;51.154;4.456;2024-03-08T06:27:35;7.97;;;4.78;;
16385;SDS011;8302;51.154;4.456;2024-03-08T06:30:03;7.95;;;4.47;;
16385;SDS011;8302;51.154;4.456;2024-03-08T06:32:31;8.60;;;4.22;;
16385;SDS011;8302;51.154;4.456;2024-03-08T06:35:02;10.68;;;5.28;;
16385;SDS011;8302;51.154;4.456;2024-03-08T06:37:32;11.25;;;5.72;;
16385;SDS011;8302;51.154;4.456;2024-03-08T06:40:02;12.10;;;5.47;;
16385;SDS011;8302;51.154;4.456;2024-03-08T06:42:30;16.92;;;6.65;;
16385;SDS011;8302;51.154;4.456;2024-03-08T06:45:01;14.82;;;6.35;;
16385;SDS011;8302;51.154;4.456;2024-03-08T06:47:31;10.90;;;5.65;;
16385;SDS011;8302;51.154;4.456;2024-03-08T06:50:00;13.32;;;6.70;;
16385;SDS011;8302;51.154;4.456;2024-03-08T06:52:27;17.15;;;5.28;;
16385;SDS011;8302;51.154;4.456;2024-03-08T06:54:55;12.57;;;5.57;;
16385;SDS011;8302;51.154;4.456;2024-03-08T06:57:25;11.38;;;5.78;;
16385;SDS011;8302;51.154;4.456;2024-03-08T06:59:52;13.15;;;6.43;;
16385;SDS011;8302;51.154;4.456;2024-03-08T07:02:20;15.50;;;5.82;;
16385;SDS011;8302;51.154;4.456;2024-03-08T07:04:51;17.45;;;6.18;;
16385;SDS011;8302;51.154;4.456;2024-03-08T07:07:19;17.52;;;8.27;;
16385;SDS011;8302;51.154;4.456;2024-03-08T07:09:48;11.20;;;5.35;;
16385;SDS011;8302;51.154;4.456;2024-03-08T07:12:16;14.98;;;6.15;;
16385;SDS011;8302;51.154;4.456;2024-03-08T07:14:46;14.25;;;6.47;;
16385;SDS011;8302;51.154;4.456;2024-03-08T07:17:13;12.23;;;7.38;;
16385;SDS011;8302;51.154;4.456;2024-03-08T07:19:42;16.13;;;5.55;;
16385;SDS011;8302;51.154;4.456;2024-03-08T07:22:10;10.75;;;4.65;;
16385;SDS011;8302;51.154;4.456;2024-03-08T07:24:39;20.50;;;8.52;;
16385;SDS011;8302;51.154;4.456;2024-03-08T07:27:22;18.05;;;7.13;;
16385;SDS011;8302;51.154;4.456;2024-03-08T07:29:51;12.40;;;6.05;;
16385;SDS011;8302;51.154;4.456;2024-03-08T07:32:34;11.88;;;5.57;;
16385;SDS011;8302;51.154;4.456;2024-03-08T07:35:02;14.40;;;5.05;;
16385;SDS011;8302;51.154;4.456;2024-03-08T07:37:30;11.50;;;6.55;;
16385;SDS011;8302;51.154;4.456;2024-03-08T07:39:58;10.63;;;5.65;;
16385;SDS011;8302;51.154;4.456;2024-03-08T07:42:25;9.85;;;4.95;;
16385;SDS011;8302;51.154;4.456;2024-03-08T07:44:56;11.85;;;6.32;;
16385;SDS011;8302;51.154;4.456;2024-03-08T07:47:24;13.43;;;5.97;;
16385;SDS011;8302;51.154;4.456;2024-03-08T07:49:53;9.88;;;5.78;;
16385;SDS011;8302;51.154;4.456;2024-03-08T07:52:20;13.98;;;5.07;;
16385;SDS011;8302;51.154;4.456;2024-03-08T07:54:48;11.88;;;5.10;;
16385;SDS011;8302;51.154;4.456;2024-03-08T07:57:16;10.15;;;5.28;;
16385;SDS011;8302;51.154;4.456;2024-03-08T07:59:44;13.02;;;5.70;;
16385;SDS011;8302;51.154;4.456;2024-03-08T08:02:13;7.32;;;4.70;;
16385;SDS011;8302;51.154;4.456;2024-03-08T08:04:41;14.20;;;7.18;;
16385;SDS011;8302;51.154;4.456;2024-03-08T08:07:11;10.50;;;6.72;;
16385;SDS011;8302;51.154;4.456;2024-03-08T08:09:39;14.02;;;6.78;;
16385;SDS011;8302;51.154;4.456;2024-03-08T08:12:07;15.55;;;8.00;;
16385;SDS011;8302;51.154;4.456;2024-03-08T08:14:38;14.18;;;7.13;;
16385;SDS011;8302;51.154;4.456;2024-03-08T08:17:06;13.30;;;8.35;;
16385;SDS011;8302;51.154;4.456;2024-03-08T08:19:36;10.55;;;6.00;;
16385;SDS011;8302;51.154;4.456;2024-03-08T08:22:05;12.70;;;7.10;;
16385;SDS011;8302;51.154;4.456;2024-03-08T08:24:35;12.95;;;6.75;;
16385;SDS011;8302;51.154;4.456;2024-03-08T08:27:03;12.43;;;6.93;;
16385;SDS011;8302;51.154;4.456;2024-03-08T08:29:31;13.00;;;7.80;;
16385;SDS011;8302;51.154;4.456;2024-03-08T08:31:59;9.90;;;5.97;;
16385;SDS011;8302;51.154;4.456;2024-03-08T08:34:29;9.10;;;6.32;;
16385;SDS011;8302;51.154;4.456;2024-03-08T08:36:59;13.57;;;6.72;;
16385;SDS011;8302;51.154;4.456;2024-03-08T08:39:27;11.27;;;6.50;;
16385;SDS011;8302;51.154;4.456;2024-03-08T08:41:55;11.02;;;6.93;;
16385;SDS011;8302;51.154;4.456;2024-03-08T08:44:22;13.27;;;7.68;;
16385;SDS011;8302;51.154;4.456;2024-03-08T08:46:51;9.45;;;6.25;;
16385;SDS011;8302;51.154;4.456;2024-03-08T08:49:28;10.52;;;7.43;;
16385;SDS011;8302;51.154;4.456;2024-03-08T08:51:58;11.82;;;7.28;;
16385;SDS011;8302;51.154;4.456;2024-03-08T08:54:37;10.95;;;7.38;;
16385;SDS011;8302;51.154;4.456;2024-03-08T08:57:05;13.13;;;7.65;;
16385;SDS011;8302;51.154;4.456;2024-03-08T08:59:34;11.02;;;6.32;;
16385;SDS011;8302;51.154;4.456;2024-03-08T09:02:02;12.45;;;6.65;;
16385;SDS011;8302;51.154;4.456;2024-03-08T09:04:30;9.90;;;7.05;;
16385;SDS011;8302;51.154;4.456;2024-03-08T09:06:59;12.70;;;6.90;;
16385;SDS011;8302;51.154;4.456;2024-03-08T09:09:28;12.43;;;6.97;;
16385;SDS011;8302;51.154;4.456;2024-03-08T09:11:56;10.40;;;7.80;;
16385;SDS011;8302;51.154;4.456;2024-03-08T09:14:23;13.35;;;7.97;;
16385;SDS011;8302;51.154;4.456;2024-03-08T09:16:52;11.25;;;7.95;;
16385;SDS011;8302;51.154;4.456;2024-03-08T09:19:20;11.05;;;8.00;;
16385;SDS011;8302;51.154;4.456;2024-03-08T09:21:49;10.32;;;6.50;;
16385;SDS011;8302;51.154;4.456;2024-03-08T09:24:19;8.90;;;6.25;;
16385;SDS011;8302;51.154;4.456;2024-03-08T09:26:47;10.98;;;5.85;;
16385;SDS011;8302;51.154;4.456;2024-03-08T09:29:14;10.35;;;6.50;;
16385;SDS011;8302;51.154;4.456;2024-03-08T09:31:42;11.55;;;6.68;;
16385;SDS011;8302;51.154;4.456;2024-03-08T09:34:13;11.73;;;6.63;;
16385;SDS011;8302;51.154;4.456;2024-03-08T09:36:48;13.23;;;6.63;;
16385;SDS011;8302;51.154;4.456;2024-03-08T09:39:18;10.38;;;6.60;;
16385;SDS011;8302;51.154;4.456;2024-03-08T09:41:49;12.25;;;7.20;;
16385;SDS011;8302;51.154;4.456;2024-03-08T09:44:17;17.65;;;7.57;;
16385;SDS011;8302;51.154;4.456;2024-03-08T09:46:46;15.90;;;6.18;;
16385;SDS011;8302;51.154;4.456;2024-03-08T09:49:16;11.50;;;6.20;;
16385;SDS011;8302;51.154;4.456;2024-03-08T09:51:43;12.95;;;7.20;;
16385;SDS011;8302;51.154;4.456;2024-03-08T09:54:12;14.77;;;6.43;;
16385;SDS011;8302;51.154;4.456;2024-03-08T09:56:50;13.10;;;6.88;;
16385;SDS011;8302;51.154;4.456;2024-03-08T09:59:19;13.10;;;7.45;;
16385;SDS011;8302;51.154;4.456;2024-03-08T10:02:12;12.48;;;6.85;;
16385;SDS011;8302;51.154;4.456;2024-03-08T10:04:41;12.05;;;7.13;;
16385;SDS011;8302;51.154;4.456;2024-03-08T10:07:10;15.18;;;7.68;;
16385;SDS011;8302;51.154;4.456;2024-03-08T10:09:38;11.60;;;6.90;;
16385;SDS011;8302;51.154;4.456;2024-03-08T10:12:09;11.73;;;7.40;;
16385;SDS011;8302;51.154;4.456;2024-03-08T10:14:40;11.60;;;7.05;;
16385;SDS011;8302;51.154;4.456;2024-03-08T10:17:08;10.43;;;6.00;;
16385;SDS011;8302;51.154;4.456;2024-03-08T10:19:36;16.63;;;5.82;;
16385;SDS011;8302;51.154;4.456;2024-03-08T10:22:05;13.07;;;7.38;;
16385;SDS011;8302;51.154;4.456;2024-03-08T10:24:33;10.40;;;5.78;;
16385;SDS011;8302;51.154;4.456;2024-03-08T10:27:04;13.30;;;5.47;;
16385;SDS011;8302;51.154;4.456;2024-03-08T10:29:35;11.25;;;5.53;;
16385;SDS011;8302;51.154;4.456;2024-03-08T10:32:04;10.10;;;5.90;;
16385;SDS011;8302;51.154;4.456;2024-03-08T10:34:33;10.15;;;6.00;;
16385;SDS011;8302;51.154;4.456;2024-03-08T10:37:02;9.68;;;5.88;;
16385;SDS011;8302;51.154;4.456;2024-03-08T10:39:33;12.38;;;5.72;;
16385;SDS011;8302;51.154;4.456;2024-03-08T10:42:02;10.40;;;6.00;;
16385;SDS011;8302;51.154;4.456;2024-03-08T10:47:16;10.23;;;5.40;;
16385;SDS011;8302;51.154;4.456;2024-03-08T10:49:50;10.77;;;5.70;;
16385;SDS011;8302;51.154;4.456;2024-03-08T10:52:18;9.68;;;6.32;;
16385;SDS011;8302;51.154;4.456;2024-03-08T10:54:47;10.40;;;6.20;;
16385;SDS011;8302;51.154;4.456;2024-03-08T10:57:17;10.55;;;5.88;;
16385;SDS011;8302;51.154;4.456;2024-03-08T10:59:46;9.27;;;4.85;;
16385;SDS011;8302;51.154;4.456;2024-03-08T11:02:17;9.60;;;4.88;;
16385;SDS011;8302;51.154;4.456;2024-03-08T11:04:46;9.05;;;5.93;;
16385;SDS011;8302;51.154;4.456;2024-03-08T11:07:15;9.32;;;5.38;;
16385;SDS011;8302;51.154;4.456;2024-03-08T11:09:47;8.50;;;4.30;;
16385;SDS011;8302;51.154;4.456;2024-03-08T11:12:21;7.97;;;5.38;;
16385;SDS011;8302;51.154;4.456;2024-03-08T11:14:52;9.80;;;5.00;;
16385;SDS011;8302;51.154;4.456;2024-03-08T11:17:22;9.82;;;4.88;;
16385;SDS011;8302;51.154;4.456;2024-03-08T11:19:55;9.35;;;4.90;;
16385;SDS011;8302;51.154;4.456;2024-03-08T11:22:23;6.80;;;4.90;;
16385;SDS011;8302;51.154;4.456;2024-03-08T11:24:55;6.57;;;4.43;;
16385;SDS011;8302;51.154;4.456;2024-03-08T11:27:28;8.43;;;4.57;;
16385;SDS011;8302;51.154;4.456;2024-03-08T11:29:59;8.65;;;5.32;;
16385;SDS011;8302;51.154;4.456;2024-03-08T11:32:29;7.72;;;5.43;;
16385;SDS011;8302;51.154;4.456;2024-03-08T11:34:59;8.73;;;5.15;;
16385;SDS011;8302;51.154;4.456;2024-03-08T11:37:33;7.10;;;3.90;;
16385;SDS011;8302;51.154;4.456;2024-03-08T11:40:01;11.43;;;5.82;;
16385;SDS011;8302;51.154;4.456;2024-03-08T11:42:31;8.98;;;5.63;;
16385;SDS011;8302;51.154;4.456;2024-03-08T11:44:58;8.25;;;4.93;;
16385;SDS011;8302;51.154;4.456;2024-03-08T11:47:26;9.05;;;5.07;;
16385;SDS011;8302;51.154;4.456;2024-03-08T11:49:57;6.53;;;4.20;;
16385;SDS011;8302;51.154;4.456;2024-03-08T11:52:25;7.50;;;4.53;;
16385;SDS011;8302;51.154;4.456;2024-03-08T11:54:54;5.97;;;3.72;;
16385;SDS011;8302;51.154;4.456;2024-03-08T11:57:24;7.47;;;4.50;;
16385;SDS011;8302;51.154;4.456;2024-03-08T11:59:51;7.00;;;4.32;;
16385;SDS011;8302;51.154;4.456;2024-03-08T12:02:23;6.30;;;3.83;;
16385;SDS011;8302;51.154;4.456;2024-03-08T12:04:55;11.50;;;4.70;;
16385;SDS011;8302;51.154;4.456;2024-03-08T12:07:24;6.30;;;4.03;;
16385;SDS011;8302;51.154;4.456;2024-03-08T12:12:43;6.05;;;4.00;;
16385;SDS011;8302;51.154;4.456;2024-03-08T12:15:11;8.18;;;4.20;;
16385;SDS011;8302;51.154;4.456;2024-03-08T12:17:39;8.18;;;4.70;;
16385;SDS011;8302;51.154;4.456;2024-03-08T12:20:12;6.00;;;3.35;;
16385;SDS011;8302;51.154;4.456;2024-03-08T12:22:42;7.13;;;5.03;;
16385;SDS011;8302;51.154;4.456;2024-03-08T12:25:10;7.13;;;4.68;;
16385;SDS011;8302;51.154;4.456;2024-03-08T12:27:39;6.45;;;5.10;;
16385;SDS011;8302;51.154;4.456;2024-03-08T12:30:17;7.72;;;4.40;;
16385;SDS011;8302;51.154;4.456;2024-03-08T12:32:47;6.97;;;4.80;;
16385;SDS011;8302;51.154;4.456;2024-03-08T12:35:15;6.43;;;4.00;;
16385;SDS011;8302;51.154;4.456;2024-03-08T12:37:44;7.10;;;4.35;;
16385;SDS011;8302;51.154;4.456;2024-03-08T12:40:12;6.25;;;4.55;;
16385;SDS011;8302;51.154;4.456;2024-03-08T12:42:43;7.07;;;4.78;;
16385;SDS011;8302;51.154;4.456;2024-03-08T12:45:11;7.57;;;4.65;;
16385;SDS011;8302;51.154;4.456;2024-03-08T12:47:39;8.63;;;5.47;;
16385;SDS011;8302;51.154;4.456;2024-03-08T12:50:09;8.63;;;4.07;;
16385;SDS011;8302;51.154;4.456;2024-03-08T12:52:37;9.55;;;5.60;;
16385;SDS011;8302;51.154;4.456;2024-03-08T12:55:06;8.65;;;5.07;;
16385;SDS011;8302;51.154;4.456;2024-03-08T12:57:34;7.72;;;5.05;;
16385;SDS011;8302;51.154;4.456;2024-03-08T13:00:01;6.60;;;3.72;;
16385;SDS011;8302;51.154;4.456;2024-03-08T13:02:30;6.15;;;4.78;;
16385;SDS011;8302;51.154;4.456;2024-03-08T13:04:58;7.80;;;5.90;;
16385;SDS011;8302;51.154;4.456;2024-03-08T13:07:26;6.55;;;4.68;;
16385;SDS011;8302;51.154;4.456;2024-03-08T13:09:54;7.13;;;4.07;;
16385;SDS011;8302;51.154;4.456;2024-03-08T13:12:25;7.68;;;5.28;;
16385;SDS011;8302;51.154;4.456;2024-03-08T13:14:52;7.57;;;4.03;;
16385;SDS011;8302;51.154;4.456;2024-03-08T13:17:22;6.97;;;4.55;;
16385;SDS011;8302;51.154;4.456;2024-03-08T13:19:50;8.50;;;4.85;;
16385;SDS011;8302;51.154;4.456;2024-03-08T13:22:21;8.25;;;4.95;;
16385;SDS011;8302;51.154;4.456;2024-03-08T13:24:49;5.05;;;3.58;;
16385;SDS011;8302;51.154;4.456;2024-03-08T13:27:19;7.55;;;4.38;;
16385;SDS011;8302;51.154;4.456;2024-03-08T13:29:49;7.47;;;3.80;;
16385;SDS011;8302;51.154;4.456;2024-03-08T13:32:17;6.80;;;4.32;;
16385;SDS011;8302;51.154;4.456;2024-03-08T13:34:46;5.43;;;3.63;;
16385;SDS011;8302;51.154;4.456;2024-03-08T13:37:17;6.38;;;3.75;;
16385;SDS011;8302;51.154;4.456;2024-03-08T13:39:46;6.13;;;4.18;;
16385;SDS011;8302;51.154;4.456;2024-03-08T13:42:13;6.40;;;4.13;;
16385;SDS011;8302;51.154;4.456;2024-03-08T13:44:45;5.15;;;3.83;;
16385;SDS011;8302;51.154;4.456;2024-03-08T13:47:15;7.03;;;4.88;;
16385;SDS011;8302;51.154;4.456;2024-03-08T13:49:43;8.13;;;4.32;;
16385;SDS011;8302;51.154;4.456;2024-03-08T13:52:11;4.93;;;3.83;;
16385;SDS011;8302;51.154;4.456;2024-03-08T13:54:42;4.88;;;3.30;;
16385;SDS011;8302;51.154;4.456;2024-03-08T13:57:10;7.03;;;4.28;;
16385;SDS011;8302;51.154;4.456;2024-03-08T13:59:38;5.45;;;4.22;;
16385;SDS011;8302;51.154;4.456;2024-03-08T14:02:06;7.93;;;4.43;;
16385;SDS011;8302;51.154;4.456;2024-03-08T14:04:41;7.10;;;4.30;;
16385;SDS011;8302;51.154;4.456;2024-03-08T14:07:09;7.28;;;3.83;;
16385;SDS011;8302;51.154;4.456;2024-03-08T14:09:37;6.10;;;3.95;;
16385;SDS011;8302;51.154;4.456;2024-03-08T14:12:09;7.90;;;3.67;;
16385;SDS011;8302;51.154;4.456;2024-03-08T14:14:37;5.03;;;3.50;;
16385;SDS011;8302;51.154;4.456;2024-03-08T14:17:04;6.43;;;3.83;;
16385;SDS011;8302;51.154;4.456;2024-03-08T14:19:33;6.63;;;3.97;;
16385;SDS011;8302;51.154;4.456;2024-03-08T14:22:03;6.82;;;5.07;;
16385;SDS011;8302;51.154;4.456;2024-03-08T14:24:31;6.55;;;4.50;;
16385;SDS011;8302;51.154;4.456;2024-03-08T14:27:01;5.63;;;3.65;;
16385;SDS011;8302;51.154;4.456;2024-03-08T14:29:29;6.40;;;4.10;;
16385;SDS011;8302;51.154;4.456;2024-03-08T14:31:59;7.85;;;3.95;;
16385;SDS011;8302;51.154;4.456;2024-03-08T14:34:27;8.52;;;5.32;;
16385;SDS011;8302;51.154;4.456;2024-03-08T14:36:56;5.90;;;4.13;;
16385;SDS011;8302;51.154;4.456;2024-03-08T14:39:25;9.23;;;4.72;;
16385;SDS011;8302;51.154;4.456;2024-03-08T14:41:55;7.97;;;5.25;;
16385;SDS011;8302;51.154;4.456;2024-03-08T14:44:24;7.15;;;4.72;;
16385;SDS011;8302;51.154;4.456;2024-03-08T14:46:52;6.13;;;4.72;;
16385;SDS011;8302;51.154;4.456;2024-03-08T14:49:20;6.80;;;4.53;;
16385;SDS011;8302;51.154;4.456;2024-03-08T14:51:48;6.13;;;4.55;;
16385;SDS011;8302;51.154;4.456;2024-03-08T14:54:16;6.40;;;4.13;;
16385;SDS011;8302;51.154;4.456;2024-03-08T14:56:50;6.97;;;4.20;;
16385;SDS011;8302;51.154;4.456;2024-03-08T14:59:18;6.60;;;4.95;;
16385;SDS011;8302;51.154;4.456;2024-03-08T15:01:46;7.63;;;4.53;;
16385;SDS011;8302;51.154;4.456;2024-03-08T15:04:14;6.15;;;4.38;;
16385;SDS011;8302;51.154;4.456;2024-03-08T15:06:42;7.05;;;4.55;;
16385;SDS011;8302;51.154;4.456;2024-03-08T15:09:18;7.32;;;4.47;;
16385;SDS011;8302;51.154;4.456;2024-03-08T15:11:46;9.02;;;4.70;;
16385;SDS011;8302;51.154;4.456;2024-03-08T15:14:17;6.03;;;3.90;;